Meteorología y climatología de Navarra
Datos de la estación - Meteo Navarra

Estación de Urbasa GN

Altitud 886 m.


Datos desde el 07/12/2018 hasta el 08/12/2018 en horario solar
Los datos son PROVISIONALES

Anterior Página 1 de 1 Siguiente Descargar: Formato para Excel 2000 o superior   Formato csv   Formato para OpenOffice Calc
Fecha Temperatura Humedad relativa Radiación global Insolación Precipitación Velocidad viento 10 m Velocidad viento 10 m Dirección viento 10 m
ºC % W/m² s l/m² m/s km/h º
07/12/2018 0:00 0.7 98 16.7 0 0.0 0.0 0.0 92
07/12/2018 0:10 0.1 98 16.3 0 0.0 0.0 0.0 281
07/12/2018 0:20 0.1 98 16.1 0 0.0 0.0 0.0 245
07/12/2018 0:30 -0.2 98 16.1 0 0.0 0.0 0.0 286
07/12/2018 0:40 -0.7 98 16.2 0 0.0 0.0 0.0 163
07/12/2018 0:50 -0.6 99 16.2 0 0.0 0.0 0.0 0
07/12/2018 1:00 -0.8 99 14.3 0 0.0 0.1 0.2 298
07/12/2018 1:10 -0.9 99 0.0 0 0.0 0.1 0.2 276
07/12/2018 1:20 -1.1 99 0.0 0 0.0 0.1 0.5 49
07/12/2018 1:30 -1.1 99 0.0 0 0.0 0.2 0.6 70
07/12/2018 1:40 -0.6 99 0.0 0 0.0 0.0 0.0 80
07/12/2018 1:50 -0.3 99 0.0 0 0.0 0.1 0.4 115
07/12/2018 2:00 0.1 99 0.0 0 0.0 0.0 0.1 92
07/12/2018 2:10 0.2 99 0.5 0 0.0 0.0 0.1 52
07/12/2018 2:20 0.4 99 13.2 0 0.0 0.1 0.4 61
07/12/2018 2:30 0.7 99 18.1 0 0.0 0.0 0.1 13
07/12/2018 2:40 0.6 99 17.2 0 0.0 0.2 0.5 262
07/12/2018 2:50 0.2 99 16.5 0 0.0 0.1 0.3 268
07/12/2018 3:00 0.1 99 15.7 0 0.0 0.1 0.4 73
07/12/2018 3:10 -0.2 99 16.5 0 0.0 0.4 1.3 94
07/12/2018 3:20 -0.5 99 15.7 0 0.0 0.2 0.6 250
07/12/2018 3:30 -0.9 99 5.0 0 0.0 0.0 0.0 0
07/12/2018 3:40 -1.0 99 0.0 0 0.0 0.2 0.6 334
07/12/2018 3:50 -1.2 99 0.0 0 0.0 0.1 0.5 54
07/12/2018 4:00 -1.1 99 0.0 0 0.0 0.1 0.4 22
07/12/2018 4:10 -1.0 99 0.0 0 0.0 0.3 1.1 142
07/12/2018 4:20 -0.7 99 0.0 0 0.0 0.5 1.8 82
07/12/2018 4:30 -0.6 99 0.0 0 0.0 0.1 0.3 100
07/12/2018 4:40 -0.7 99 0.0 0 0.0 0.4 1.3 61
07/12/2018 4:50 -0.7 99 0.0 0 0.0 0.4 1.4 50
07/12/2018 5:00 -0.5 100 0.0 0 0.0 0.0 0.0 0
07/12/2018 5:10 -0.7 99 0.0 0 0.0 0.0 0.0 0
07/12/2018 5:20 -0.7 100 0.0 0 0.0 0.0 0.0 0
07/12/2018 5:30 -0.8 100 0.0 0 0.0 0.4 1.4 234
07/12/2018 5:40 -0.9 100 0.0 0 0.0 0.1 0.2 99
07/12/2018 5:50 -0.9 100 0.0 0 0.0 0.1 0.2 166
07/12/2018 6:00 -1.1 100 0.0 0 0.0 0.0 0.1 224
07/12/2018 6:10 -1.1 100 0.0 0 0.0 0.0 0.1 95
07/12/2018 6:20 -1.3 100 0.0 0 0.0 0.0 0.0 0
07/12/2018 6:30 -1.4 100 0.0 0 0.0 0.4 1.3 42
07/12/2018 6:40 -1.4 100 0.0 0 0.0 0.0 0.1 35
07/12/2018 6:50 -1.5 99 0.0 0 0.0 0.0 0.0 0
07/12/2018 7:00 -1.7 99 0.0 0 0.0 0.0 0.0 0
07/12/2018 7:10 -1.8 99 0.0 0 0.0 0.0 0.0 233
07/12/2018 7:20 -1.9 99 0.0 0 0.0 0.2 0.6 158
07/12/2018 7:30 -2.1 99 0.0 0 0.0 0.1 0.3 70
07/12/2018 7:40 -2.2 99 5.6 0 0.0 0.0 0.0 0
07/12/2018 7:50 -2.0 99 19.2 0 0.0 0.0 0.1 111
07/12/2018 8:00 -2.1 99 24.3 0 0.0 0.0 0.0 0
07/12/2018 8:10 -2.0 99 92.1 524 0.0 0.1 0.2 165
07/12/2018 8:20 -1.5 99 142.8 600 0.0 0.0 0.0 162
07/12/2018 8:30 -0.7 99 172.7 600 0.0 0.0 0.0 149
07/12/2018 8:40 -0.5 99 205.0 600 0.0 0.1 0.4 116
07/12/2018 8:50 -0.1 99 233.7 600 0.0 0.1 0.2 128
07/12/2018 9:00 0.4 99 279.8 600 0.0 0.2 0.7 84
07/12/2018 9:10 1.0 99 282.2 600 0.0 0.4 1.4 93
07/12/2018 9:20 1.7 99 260.5 600 0.0 0.0 0.1 123
07/12/2018 9:30 2.3 98 266.5 600 0.0 0.3 1.0 109
07/12/2018 9:40 2.8 96 288.2 600 0.0 0.2 0.7 121
07/12/2018 9:50 3.2 93 308.9 600 0.0 0.4 1.3 201
07/12/2018 10:00 3.8 90 315.0 600 0.0 0.2 0.6 149
07/12/2018 10:10 5.0 88 349.9 600 0.1 0.2 0.6 126
07/12/2018 10:20 6.2 82 367.6 600 0.0 0.9 3.1 112
07/12/2018 10:30 6.2 81 382.4 600 0.0 1.0 3.4 117
07/12/2018 10:40 6.4 79 396.2 600 0.0 1.4 4.9 98
07/12/2018 10:50 6.9 78 406.4 600 0.0 1.1 3.9 110
07/12/2018 11:00 7.4 77 418.3 600 0.0 0.8 3.0 132
07/12/2018 11:10 8.1 73 428.2 600 0.0 0.3 1.2 89
07/12/2018 11:20 8.4 73 436.6 600 0.0 0.9 3.1 109
07/12/2018 11:30 9.5 70 444.7 600 0.0 1.2 4.4 133
07/12/2018 11:40 9.4 70 446.0 600 0.0 1.5 5.5 142
07/12/2018 11:50 9.9 68 446.2 600 0.0 1.0 3.6 151
07/12/2018 12:00 10.5 66 449.4 600 0.0 0.6 2.1 120
07/12/2018 12:10 11.1 64 447.9 600 0.0 0.8 3.0 126
07/12/2018 12:20 10.9 63 446.9 600 0.0 1.4 5.1 3
07/12/2018 12:30 8.8 69 443.8 600 0.0 2.2 7.8 345
07/12/2018 12:40 8.9 70 445.0 600 0.0 1.6 5.7 333
07/12/2018 12:50 8.7 70 327.8 600 0.0 1.9 6.8 350
07/12/2018 13:00 8.8 71 224.3 358 0.0 1.4 5.1 350
07/12/2018 13:10 9.0 69 315.1 600 0.0 2.0 7.1 342
07/12/2018 13:20 9.4 69 354.7 534 0.0 1.2 4.4 300
07/12/2018 13:30 9.8 68 395.5 590 0.0 1.3 4.7 282
07/12/2018 13:40 10.2 65 384.3 600 0.0 1.9 6.8 251
07/12/2018 13:50 10.6 62 368.1 600 0.0 1.8 6.4 252
07/12/2018 14:00 11.2 58 352.9 600 0.0 1.3 4.6 294
07/12/2018 14:10 11.2 58 332.8 600 0.0 1.8 6.6 303
07/12/2018 14:20 10.5 65 340.6 600 0.0 1.6 5.8 281
07/12/2018 14:30 10.8 66 293.1 568 0.0 0.8 2.8 282
07/12/2018 14:40 10.3 67 121.0 6 0.0 1.6 5.7 316
07/12/2018 14:50 10.1 68 103.4 0 0.0 0.9 3.3 283
07/12/2018 15:00 9.7 71 77.6 0 0.0 1.0 3.7 300
07/12/2018 15:10 9.5 71 66.9 0 0.0 1.4 4.9 320
07/12/2018 15:20 9.2 73 64.8 0 0.0 0.9 3.1 316
07/12/2018 15:30 9.0 74 70.6 0 0.0 1.0 3.5 0
07/12/2018 15:40 9.0 75 58.0 0 0.0 1.0 3.6 344
07/12/2018 15:50 9.0 75 48.1 0 0.0 1.1 3.9 293
07/12/2018 16:00 8.9 76 42.9 0 0.0 1.5 5.5 290
07/12/2018 16:10 8.9 76 41.0 532 0.0 1.8 6.4 266
07/12/2018 16:20 8.7 77 37.0 600 0.0 2.5 8.9 262
07/12/2018 16:30 8.6 78 32.9 598 0.0 2.1 7.7 260
07/12/2018 16:40 8.6 78 29.9 314 0.0 2.1 7.4 268
07/12/2018 16:50 8.6 79 28.6 4 0.0 2.1 7.5 264
07/12/2018 17:00 8.3 82 27.0 0 0.0 2.6 9.3 273
07/12/2018 17:10 8.0 85 26.7 0 0.0 2.4 8.5 265
07/12/2018 17:20 7.8 87 26.5 0 0.0 2.0 7.2 287
07/12/2018 17:30 7.6 90 26.4 0 0.0 1.0 3.6 284
07/12/2018 17:40 7.5 94 26.7 0 0.0 1.9 6.7 297
07/12/2018 17:50 7.4 96 26.9 0 0.0 1.0 3.6 311
07/12/2018 18:00 7.4 97 27.0 0 0.0 0.9 3.4 266
07/12/2018 18:10 7.3 97 27.4 0 0.0 0.4 1.4 244
07/12/2018 18:20 7.3 98 27.3 0 0.0 0.8 3.0 294
07/12/2018 18:30 7.1 98 26.6 0 0.1 2.3 8.1 255
07/12/2018 18:40 6.9 98 25.6 0 0.0 1.5 5.4 274
07/12/2018 18:50 6.9 98 25.8 0 0.1 0.5 1.7 39
07/12/2018 19:00 7.0 98 25.7 0 0.0 0.9 3.2 12
07/12/2018 19:10 6.9 98 26.2 2 0.1 2.7 9.8 340
07/12/2018 19:20 6.7 98 26.0 0 0.0 2.3 8.4 6
07/12/2018 19:30 6.5 97 25.7 0 0.0 1.1 4.0 62
07/12/2018 19:40 6.6 97 25.9 0 0.0 1.0 3.7 127
07/12/2018 19:50 6.6 97 25.5 0 0.0 2.0 7.2 16
07/12/2018 20:00 6.5 98 25.6 0 0.0 1.8 6.3 134
07/12/2018 20:10 6.5 98 25.5 0 0.1 1.2 4.4 89
07/12/2018 20:20 6.5 98 25.7 0 0.0 2.2 7.8 359
07/12/2018 20:30 6.4 98 25.5 0 0.0 2.0 7.2 330
07/12/2018 20:40 6.3 98 25.4 0 0.0 1.6 5.6 81
07/12/2018 20:50 6.4 97 25.0 0 0.0 2.2 7.8 348
07/12/2018 21:00 6.3 97 24.8 0 0.0 1.9 6.9 133
07/12/2018 21:10 6.2 97 24.4 0 0.1 1.9 6.9 13
07/12/2018 21:20 6.2 97 24.5 0 0.0 2.2 8.0 336
07/12/2018 21:30 6.0 97 24.9 2 0.0 2.6 9.5 338
07/12/2018 21:40 5.9 98 25.1 0 0.0 2.0 7.3 35
07/12/2018 21:50 5.8 97 25.5 2 0.0 2.1 7.5 354
07/12/2018 22:00 5.6 96 25.1 4 0.0 2.2 7.8 149
07/12/2018 22:10 5.5 96 24.8 0 0.0 2.4 8.8 110
07/12/2018 22:20 5.4 96 24.8 0 0.0 2.2 7.8 43
07/12/2018 22:30 5.3 95 24.6 2 0.0 1.9 6.7 231
07/12/2018 22:40 5.3 95 24.6 0 0.0 1.6 5.7 162
07/12/2018 22:50 5.3 95 24.4 0 0.0 1.9 6.9 138
07/12/2018 23:00 5.4 95 24.4 0 0.0 2.4 8.5 154
07/12/2018 23:10 5.3 95 24.3 0 0.0 1.4 5.0 155
07/12/2018 23:20 5.4 95 24.2 0 0.0 0.9 3.3 155
07/12/2018 23:30 5.3 95 24.4 0 0.0 1.0 3.5 230
07/12/2018 23:40 5.3 96 24.6 0 0.0 0.8 3.0 161
07/12/2018 23:50 5.2 96 24.3 0 0.0 1.1 4.0 236
Anterior Página 1 de 1 Siguiente

NOTA: Tipo de datos según el color:
   - Valores diarios o 10 minutos correctos
   - Valores diarios calculados a partir de un número de datos 10 minutos menor que 144 y mayor que 120, o de un número de datos semihorarios menor que 48 y mayor que 40 (caso de las estaciones de Riegos de Navarra y del MARM)
   - Valores diez minutos estimados


Contacto        Enlaces        Aviso legal